createdAt,value
2022-11-13T00:00:09.542Z,4.26
2022-11-13T00:03:31.457Z,4.34
2022-11-13T00:06:58.797Z,4.36
2022-11-13T00:10:20.443Z,4.35
2022-11-13T00:13:42.906Z,4.38
2022-11-13T00:17:05.707Z,4.44
2022-11-13T00:20:26.790Z,4.38
2022-11-13T00:23:48.224Z,4.05
2022-11-13T00:27:09.618Z,3.96
2022-11-13T00:30:31.352Z,4.12
2022-11-13T00:34:09.521Z,4.08
2022-11-13T00:37:35.617Z,4.15
2022-11-13T00:40:56.730Z,4.11
2022-11-13T00:44:17.837Z,4.04
2022-11-13T00:47:38.938Z,4.03
2022-11-13T00:51:02.062Z,3.96
2022-11-13T00:54:23.534Z,3.90
2022-11-13T00:57:44.679Z,3.85
2022-11-13T01:01:07.400Z,3.58
2022-11-13T01:04:29.561Z,3.58
2022-11-13T01:07:52.478Z,3.51
2022-11-13T01:11:14.792Z,3.66
2022-11-13T01:14:36.128Z,3.73
2022-11-13T01:17:57.561Z,3.78
2022-11-13T01:21:19.894Z,3.73
2022-11-13T01:24:42.344Z,3.76
2022-11-13T01:28:03.483Z,3.73
2022-11-13T01:31:26.259Z,3.77
2022-11-13T01:34:47.279Z,3.68
2022-11-13T01:38:08.780Z,3.65
2022-11-13T01:41:32.293Z,3.64
2022-11-13T01:44:54.577Z,3.60
2022-11-13T01:48:16.335Z,3.60
2022-11-13T01:51:39.752Z,3.67
2022-11-13T01:55:03.444Z,3.68
2022-11-13T01:58:26.318Z,3.54
2022-11-13T02:01:48.287Z,3.32
2022-11-13T02:05:09.985Z,3.34
2022-11-13T02:08:31.890Z,3.24
2022-11-13T02:11:53.810Z,3.21
2022-11-13T02:15:16.506Z,3.29
2022-11-13T02:18:39.585Z,3.18
2022-11-13T02:22:04.874Z,3.32
2022-11-13T02:25:29.318Z,3.31
2022-11-13T02:28:50.316Z,3.32
2022-11-13T02:32:11.741Z,3.32
2022-11-13T02:35:34.502Z,3.21
2022-11-13T02:38:57.754Z,3.21
2022-11-13T02:42:20.674Z,3.06
2022-11-13T02:45:42.115Z,2.87
2022-11-13T02:49:03.480Z,2.95
2022-11-13T02:52:24.639Z,3.01
2022-11-13T02:55:45.826Z,2.97
2022-11-13T02:59:08.353Z,3.03
2022-11-13T03:02:29.764Z,3.02
2022-11-13T03:05:51.102Z,3.07
2022-11-13T03:09:12.666Z,3.13
2022-11-13T03:12:34.118Z,3.11
2022-11-13T03:15:56.806Z,3.09
2022-11-13T03:19:18.435Z,3.00
2022-11-13T03:22:39.678Z,2.91
2022-11-13T03:26:03.393Z,2.71
2022-11-13T03:29:24.464Z,2.73
2022-11-13T03:32:47.448Z,2.80
2022-11-13T03:36:09.350Z,2.83
2022-11-13T03:39:30.863Z,2.85
2022-11-13T03:42:52.500Z,2.81
2022-11-13T03:46:13.721Z,2.44
2022-11-13T03:49:36.518Z,2.46
2022-11-13T03:52:57.819Z,2.61
2022-11-13T03:56:19.123Z,2.49
2022-11-13T03:59:40.516Z,2.57
2022-11-13T04:03:01.832Z,2.44
2022-11-13T04:06:24.320Z,2.52
2022-11-13T04:09:45.581Z,2.31
2022-11-13T04:13:06.933Z,2.43
2022-11-13T04:16:27.998Z,2.52
2022-11-13T04:19:49.016Z,2.57
2022-11-13T04:23:12.753Z,2.57
2022-11-13T04:26:34.115Z,2.60
2022-11-13T04:29:55.436Z,2.61
2022-11-13T04:33:16.402Z,2.56
2022-11-13T04:36:37.755Z,2.51
2022-11-13T04:40:00.354Z,2.40
2022-11-13T04:43:20.698Z,2.42
2022-11-13T04:46:41.848Z,2.33
2022-11-13T04:50:03.011Z,2.25
2022-11-13T04:53:24.176Z,2.10
2022-11-13T04:56:46.753Z,2.25
2022-11-13T05:00:09.130Z,2.31
2022-11-13T05:03:30.705Z,2.34
2022-11-13T05:06:52.624Z,2.40
2022-11-13T05:10:14.136Z,2.37
2022-11-13T05:13:37.857Z,2.33
2022-11-13T05:16:59.628Z,2.31
2022-11-13T05:20:21.096Z,2.30
2022-11-13T05:23:42.219Z,2.29
2022-11-13T05:27:03.251Z,2.11
2022-11-13T05:30:26.036Z,2.19
2022-11-13T05:33:47.365Z,2.05
2022-11-13T05:37:08.660Z,2.09
2022-11-13T05:40:30.061Z,2.09
2022-11-13T05:43:58.080Z,2.06
2022-11-13T05:47:22.197Z,1.98
2022-11-13T05:50:43.274Z,2.05
2022-11-13T05:54:04.563Z,2.04
2022-11-13T05:57:25.613Z,2.06
2022-11-13T06:00:46.884Z,2.12
2022-11-13T06:04:09.589Z,2.13
2022-11-13T06:07:31.263Z,2.08
2022-11-13T06:10:52.271Z,2.11
2022-11-13T06:14:13.487Z,2.04
2022-11-13T06:17:34.851Z,2.05
2022-11-13T06:20:57.230Z,2.06
2022-11-13T06:24:19.513Z,2.04
2022-11-13T06:27:40.936Z,2.04
2022-11-13T06:31:05.650Z,2.08
2022-11-13T06:34:26.987Z,2.11
2022-11-13T06:37:49.522Z,2.16
2022-11-13T06:41:12.293Z,2.12
2022-11-13T06:44:33.434Z,2.12
2022-11-13T06:47:55.233Z,2.19
2022-11-13T06:51:19.081Z,2.19
2022-11-13T06:54:41.971Z,2.19
2022-11-13T06:58:03.245Z,2.33
2022-11-13T07:01:25.402Z,2.35
2022-11-13T07:04:46.491Z,2.35
2022-11-13T07:08:07.847Z,2.36
2022-11-13T07:11:30.232Z,2.43
2022-11-13T07:14:51.369Z,2.50
2022-11-13T07:18:12.559Z,2.56
2022-11-13T07:21:33.880Z,2.67
2022-11-13T07:24:56.011Z,2.77
2022-11-13T07:28:18.624Z,2.89
2022-11-13T07:31:39.835Z,3.03
2022-11-13T07:35:00.947Z,3.17
2022-11-13T07:38:22.203Z,4.05
2022-11-13T07:41:43.805Z,3.78
2022-11-13T07:45:06.840Z,3.67
2022-11-13T07:48:28.733Z,3.70
2022-11-13T07:51:50.144Z,3.75
2022-11-13T07:55:11.222Z,3.81
2022-11-13T07:58:32.807Z,3.84
2022-11-13T08:01:55.506Z,3.85
2022-11-13T08:05:16.866Z,3.94
2022-11-13T08:08:38.124Z,4.03
2022-11-13T08:11:59.285Z,4.25
2022-11-13T08:15:20.380Z,4.39
2022-11-13T08:18:43.008Z,4.52
2022-11-13T08:22:04.406Z,4.59
2022-11-13T08:25:26.214Z,4.72
2022-11-13T08:28:48.046Z,4.75
2022-11-13T08:32:09.301Z,4.74
2022-11-13T08:35:31.859Z,4.84
2022-11-13T08:38:53.259Z,4.94
2022-11-13T08:42:14.451Z,5.14
2022-11-13T08:45:36.036Z,5.14
2022-11-13T08:48:57.150Z,5.24
2022-11-13T08:52:19.841Z,5.39
2022-11-13T08:55:40.877Z,5.57
2022-11-13T08:59:01.935Z,5.69
2022-11-13T09:02:23.051Z,5.85
2022-11-13T09:05:44.228Z,6.03
2022-11-13T09:09:07.695Z,6.16
2022-11-13T09:12:28.933Z,6.38
2022-11-13T09:15:50.198Z,6.72
2022-11-13T09:19:11.758Z,6.80
2022-11-13T09:22:33.218Z,6.98
2022-11-13T09:25:55.663Z,7.09
2022-11-13T09:29:17.100Z,7.31
2022-11-13T09:32:38.619Z,7.47
2022-11-13T09:35:59.638Z,7.54
2022-11-13T09:39:21.013Z,7.53
2022-11-13T09:42:43.948Z,7.73
2022-11-13T09:46:07.113Z,8.28
2022-11-13T09:49:29.654Z,8.36
2022-11-13T09:52:52.231Z,8.55
2022-11-13T09:56:20.344Z,8.65
2022-11-13T09:59:47.036Z,8.83
2022-11-13T10:03:33.435Z,9.02
2022-11-13T10:07:05.092Z,9.46
2022-11-13T10:10:37.364Z,9.49
2022-11-13T10:14:01.567Z,9.63
2022-11-13T10:17:26.002Z,10.08
2022-11-13T10:20:50.566Z,10.20
2022-11-13T10:24:16.990Z,10.13
2022-11-13T10:27:38.657Z,9.94
2022-11-13T10:31:00.165Z,9.79
2022-11-13T10:34:22.796Z,9.94
2022-11-13T10:37:51.213Z,9.92
2022-11-13T10:41:13.513Z,10.08
2022-11-13T10:44:35.342Z,10.10
2022-11-13T10:48:04.159Z,10.20
2022-11-13T10:51:28.501Z,10.23
2022-11-13T10:54:50.308Z,10.09
2022-11-13T10:58:16.412Z,10.06
2022-11-13T11:01:37.905Z,10.28
2022-11-13T11:05:02.669Z,10.41
2022-11-13T11:08:29.680Z,10.43
2022-11-13T11:12:19.119Z,10.41
2022-11-13T11:15:42.898Z,10.45
2022-11-13T11:19:10.032Z,10.73
2022-11-13T11:22:34.124Z,10.65
2022-11-13T11:25:58.472Z,10.76
2022-11-13T11:29:22.784Z,10.66
2022-11-13T11:32:46.363Z,10.84
2022-11-13T11:36:14.858Z,10.72
2022-11-13T11:39:39.185Z,11.03
2022-11-13T11:43:06.985Z,11.22
2022-11-13T11:46:28.520Z,11.42
2022-11-13T11:49:50.419Z,11.34
2022-11-13T11:53:15.601Z,11.30
2022-11-13T11:56:38.637Z,11.52
2022-11-13T12:00:06.558Z,11.63
2022-11-13T12:03:38.805Z,11.82
2022-11-13T12:07:06.879Z,11.68
2022-11-13T12:10:32.388Z,11.73
2022-11-13T12:13:59.905Z,11.99
2022-11-13T12:17:31.453Z,12.15
2022-11-13T12:20:58.224Z,11.59
2022-11-13T12:24:37.676Z,11.52
2022-11-13T12:28:00.836Z,11.67
2022-11-13T12:31:29.932Z,11.64
2022-11-13T12:34:58.549Z,11.63
2022-11-13T12:38:27.166Z,11.64
2022-11-13T12:41:50.695Z,11.68
2022-11-13T12:45:17.176Z,11.72
2022-11-13T12:48:40.723Z,11.85
2022-11-13T12:52:04.024Z,11.79
2022-11-13T12:55:26.392Z,11.81
2022-11-13T12:59:23.869Z,11.84
2022-11-13T13:02:53.949Z,11.88
2022-11-13T13:06:23.459Z,11.92
2022-11-13T13:09:54.545Z,11.98
2022-11-13T13:13:23.917Z,11.97
2022-11-13T13:16:46.046Z,12.04
2022-11-13T13:20:25.644Z,12.03
2022-11-13T13:23:48.036Z,12.01
2022-11-13T13:27:23.967Z,11.93
2022-11-13T13:30:49.625Z,11.80
2022-11-13T13:34:25.212Z,11.76
2022-11-13T13:37:51.026Z,11.78
2022-11-13T13:41:18.201Z,11.64
2022-11-13T13:44:49.372Z,11.48
2022-11-13T13:48:12.127Z,11.37
2022-11-13T13:51:35.405Z,11.35
2022-11-13T13:54:56.846Z,11.39
2022-11-13T13:58:20.375Z,11.37
2022-11-13T14:01:43.165Z,11.16
2022-11-13T14:05:18.591Z,11.27
2022-11-13T14:08:39.943Z,11.18
2022-11-13T14:12:07.824Z,10.97
2022-11-13T14:15:31.793Z,11.11
2022-11-13T14:19:03.435Z,10.94
2022-11-13T14:22:24.867Z,11.15
2022-11-13T14:25:46.763Z,11.41
2022-11-13T14:29:13.149Z,11.84
2022-11-13T14:32:35.474Z,11.90
2022-11-13T14:35:58.979Z,11.85
2022-11-13T14:39:23.169Z,11.63
2022-11-13T14:42:46.554Z,11.21
2022-11-13T14:46:07.973Z,11.23
2022-11-13T14:49:30.405Z,10.85
2022-11-13T14:53:00.578Z,10.83
2022-11-13T14:56:32.004Z,10.71
2022-11-13T14:59:53.377Z,10.74
2022-11-13T15:03:14.599Z,10.37
2022-11-13T15:06:38.305Z,10.42
2022-11-13T15:10:01.215Z,10.32
2022-11-13T15:13:22.645Z,9.71
2022-11-13T15:16:44.742Z,9.26
2022-11-13T15:20:09.663Z,9.43
2022-11-13T15:23:31.616Z,9.26
2022-11-13T15:26:54.524Z,8.91
2022-11-13T15:30:16.630Z,8.88
2022-11-13T15:33:38.131Z,8.69
2022-11-13T15:36:59.357Z,8.55
2022-11-13T15:40:20.554Z,8.16
2022-11-13T15:43:45.303Z,8.01
2022-11-13T15:47:13.541Z,7.98
2022-11-13T15:50:35.225Z,7.68
2022-11-13T15:53:58.147Z,7.83
2022-11-13T15:57:21.173Z,7.57
2022-11-13T16:00:43.837Z,7.27
2022-11-13T16:04:06.163Z,7.48
2022-11-13T16:07:29.256Z,7.06
2022-11-13T16:10:50.518Z,7.02
2022-11-13T16:14:11.716Z,7.09
2022-11-13T16:17:37.795Z,7.10
2022-11-13T16:20:58.843Z,6.89
2022-11-13T16:24:22.916Z,6.73
2022-11-13T16:27:46.158Z,6.61
2022-11-13T16:31:07.246Z,6.54
2022-11-13T16:34:29.714Z,6.03
2022-11-13T16:37:50.829Z,5.65
2022-11-13T16:41:12.633Z,5.72
2022-11-13T16:44:34.199Z,5.46
2022-11-13T16:47:57.253Z,5.22
2022-11-13T16:51:20.028Z,5.22
2022-11-13T16:54:41.557Z,5.32
2022-11-13T16:58:03.129Z,5.26
2022-11-13T17:01:25.185Z,5.29
2022-11-13T17:04:46.431Z,5.08
2022-11-13T17:08:09.919Z,5.01
2022-11-13T17:11:32.604Z,4.91
2022-11-13T17:14:53.866Z,4.94
2022-11-13T17:18:14.838Z,4.83
2022-11-13T17:21:38.927Z,4.75
2022-11-13T17:25:05.858Z,4.60
2022-11-13T17:28:27.233Z,4.44
2022-11-13T17:31:48.490Z,4.13
2022-11-13T17:35:10.527Z,4.19
2022-11-13T17:38:31.805Z,4.26
2022-11-13T17:41:54.465Z,4.07
2022-11-13T17:45:15.808Z,4.07
2022-11-13T17:48:37.835Z,3.95
2022-11-13T17:51:59.026Z,3.85
2022-11-13T17:55:20.789Z,3.94
2022-11-13T17:58:44.148Z,3.76
2022-11-13T18:02:05.759Z,3.54
2022-11-13T18:05:27.213Z,3.62
2022-11-13T18:08:48.901Z,3.07
2022-11-13T18:12:10.218Z,3.26
2022-11-13T18:15:34.376Z,3.29
2022-11-13T18:18:56.185Z,3.45
2022-11-13T18:22:17.864Z,3.33
2022-11-13T18:25:39.927Z,3.34
2022-11-13T18:29:01.941Z,3.31
2022-11-13T18:32:24.900Z,3.28
2022-11-13T18:35:46.480Z,3.20
2022-11-13T18:39:11.453Z,3.13
2022-11-13T18:42:34.881Z,3.09
2022-11-13T18:45:59.868Z,3.07
2022-11-13T18:49:22.647Z,3.12
2022-11-13T18:52:43.741Z,3.02
2022-11-13T18:56:05.691Z,2.99
2022-11-13T18:59:27.206Z,2.85
2022-11-13T19:02:51.019Z,2.61
2022-11-13T19:06:15.360Z,2.69
2022-11-13T19:09:36.670Z,2.65
2022-11-13T19:12:58.158Z,2.62
2022-11-13T19:16:20.575Z,2.60
2022-11-13T19:19:42.785Z,2.62
2022-11-13T19:23:09.559Z,2.50
2022-11-13T19:26:31.071Z,2.38
2022-11-13T19:29:52.711Z,2.26
2022-11-13T19:33:17.534Z,2.33
2022-11-13T19:36:40.987Z,2.42
2022-11-13T19:40:06.949Z,2.31
2022-11-13T19:43:28.650Z,2.13
2022-11-13T19:46:51.461Z,1.98
2022-11-13T19:50:13.191Z,1.92
2022-11-13T19:53:34.972Z,2.07
2022-11-13T19:57:00.251Z,1.82
2022-11-13T20:00:21.993Z,1.81
2022-11-13T20:03:43.329Z,1.81
2022-11-13T20:07:04.802Z,1.75
2022-11-13T20:10:27.123Z,1.63
2022-11-13T20:13:50.146Z,1.64
2022-11-13T20:17:11.649Z,1.62
2022-11-13T20:20:33.072Z,1.67
2022-11-13T20:23:56.819Z,1.69
2022-11-13T20:27:20.975Z,1.63
2022-11-13T20:30:43.761Z,1.63
2022-11-13T20:34:06.086Z,1.71
2022-11-13T20:37:28.169Z,1.66
2022-11-13T20:40:49.499Z,1.56
2022-11-13T20:44:12.347Z,1.28
2022-11-13T20:47:36.178Z,1.33
2022-11-13T20:50:57.497Z,1.54
2022-11-13T20:54:18.587Z,1.51
2022-11-13T20:57:41.174Z,1.38
2022-11-13T21:01:03.651Z,1.28
2022-11-13T21:04:26.054Z,1.29
2022-11-13T21:07:47.097Z,1.31
2022-11-13T21:11:08.995Z,1.42
2022-11-13T21:14:30.439Z,1.37
2022-11-13T21:17:52.679Z,0.98
2022-11-13T21:21:18.866Z,1.19
2022-11-13T21:24:40.323Z,1.09
2022-11-13T21:28:01.609Z,1.04
2022-11-13T21:31:22.751Z,0.95
2022-11-13T21:34:43.922Z,0.94
2022-11-13T21:38:06.655Z,0.94
2022-11-13T21:41:27.878Z,0.86
2022-11-13T21:44:49.777Z,0.99
2022-11-13T21:48:10.937Z,0.89
2022-11-13T21:51:32.687Z,0.79
2022-11-13T21:54:55.503Z,0.69
2022-11-13T21:58:17.039Z,0.66
2022-11-13T22:01:39.050Z,0.61
2022-11-13T22:05:00.199Z,0.52
2022-11-13T22:08:21.305Z,0.35
2022-11-13T22:11:43.890Z,0.20
2022-11-13T22:15:05.212Z,1.11
2022-11-13T22:18:26.685Z,2.07
2022-11-13T22:21:47.960Z,2.73
2022-11-13T22:25:09.250Z,3.56
2022-11-13T22:28:32.599Z,3.79
2022-11-13T22:31:54.049Z,4.11
2022-11-13T22:35:15.583Z,4.33
2022-11-13T22:38:37.594Z,4.39
2022-11-13T22:41:59.454Z,4.42
2022-11-13T22:45:24.350Z,4.60
2022-11-13T22:48:46.862Z,4.46
2022-11-13T22:52:08.119Z,4.59
2022-11-13T22:55:29.089Z,4.60
2022-11-13T22:58:50.202Z,4.95
2022-11-13T23:02:12.799Z,5.15
2022-11-13T23:05:35.609Z,5.48
2022-11-13T23:08:56.964Z,5.59
2022-11-13T23:12:19.591Z,5.51
2022-11-13T23:15:40.931Z,5.49
2022-11-13T23:19:03.837Z,5.61
2022-11-13T23:22:25.057Z,5.62
2022-11-13T23:25:46.473Z,5.54
2022-11-13T23:29:07.634Z,5.59
2022-11-13T23:32:28.520Z,5.69
2022-11-13T23:35:51.109Z,5.67
2022-11-13T23:39:12.677Z,5.68
2022-11-13T23:42:54.137Z,5.86
2022-11-13T23:46:15.112Z,5.88
2022-11-13T23:49:36.148Z,5.84
2022-11-13T23:52:58.520Z,5.90
2022-11-13T23:56:19.619Z,5.85
2022-11-13T23:59:41.134Z,5.96
